METAR Data
IDs: Format: Raw Decoded Include TAF

Data at: 0048 UTC 20 Jul 2019

METAR for:KPEA (Pella Muni, IA, US)
Text:KPEA 200035Z AUTO 20007KT 10SM 33/25 A2974 RMK AO2 T03300248
Temperature: 33.0°C ( 91°F)
Dewpoint: 24.8°C ( 77°F) [RH = 62%]
Pressure (altimeter):29.74 inches Hg (1007.2 mb)
Winds:from the SSW (200 degrees) at 8 MPH (7 knots; 3.6 m/s)
Visibility:10 or more sm (16+ km)
QC Flag:automated observation with no human augmentation